This is the latest recevied weather packets stored in our database for station/object VK4TOM-13. If no packets are shown the sender has not sent any weather packets the latest 10 day(s).
| Time | Temp. | Humidity | Pressure | Rain* | Wind** | Luminosity | Snow |
|---|---|---|---|---|---|---|---|
| 1787904716 | 22.22° C | 70% | 1021.7 hPa | 0 mm | - | - | - |
| 1787904116 | 22.22° C | 70% | 1021.6 hPa | 0 mm | - | - | - |
| 1787903882 | 22.22° C | 70% | 1021.4 hPa | 0 mm | - | - | - |
| 1787903418 | 22.78° C | 70% | 1021.3 hPa | 0 mm | - | - | - |
| 1787902817 | 23.33° C | 70% | 1021.2 hPa | 0 mm | - | - | - |
| 1787902216 | 23.33° C | 70% | 1021.2 hPa | 0 mm | - | - | - |
| 1787901615 | 23.89° C | 70% | 1021.1 hPa | 0 mm | - | - | - |
| 1787901015 | 24.44° C | 70% | 1021 hPa | 0 mm | - | - | - |
| 1787900413 | 24.44° C | 70% | 1020.9 hPa | 0 mm | - | - | - |
| 1787899812 | 25° C | 70% | 1020.8 hPa | 0 mm | - | - | - |
| 1787899211 | 25.56° C | 70% | 1020.8 hPa | 0 mm | - | - | - |
| 1787898610 | 26.11° C | 70% | 1020.8 hPa | 0 mm | - | - | - |
| 1787898009 | 26.67° C | 70% | 1020.7 hPa | 0 mm | - | - | - |
| 1787897408 | 27.78° C | 63% | 1020.7 hPa | 0 mm | - | - | - |
| 1787896812 | 27.78° C | 63% | 1020.9 hPa | 0 mm | - | - | - |
| 1787896206 | 28.33° C | 59% | 1020.8 hPa | 0 mm | - | - | - |
| 1787895604 | 28.33° C | 64% | 1020.8 hPa | 0 mm | - | - | - |
| 1787895004 | 28.89° C | 61% | 1020.9 hPa | 0 mm | - | - | - |
| 1787894774 | 28.89° C | 64% | 1020.9 hPa | 0 mm | - | - | - |
| 1787894319 | 28.89° C | 62% | 1021 hPa | 0 mm | - | - | - |
| 1787893812 | 28.89° C | 67% | 1020.9 hPa | 0 mm | - | - | - |
| 1787893614 | 28.89° C | 70% | 1021 hPa | 0 mm | - | - | - |
| 1787893303 | 28.33° C | 70% | 1021.1 hPa | 0 mm | - | - | - |
| 1787892702 | 28.89° C | 66% | 1021.1 hPa | 0 mm | - | - | - |
| 1787892101 | 29.44° C | 64% | 1021.2 hPa | 0 mm | - | - | - |
* Rain since midnight (hover to see other rain measurements)
** Current wind speed in m/s (hover to see current wind gust speed)